Chicago O'Hare International, Illinois
Current Conditions -  °F | °C
As of 1:51 AM on Friday 24 Oct 2014 (Local Time) from KORD Reporting Station
Overcast Overcast  
Wind Chill: 53°   Ceiling: 3200
Heat Index: 53°   Visibility: 10mi
Dew Point: 44°   Wind: 5mph
Humidity: 71%   Direction: 210°SSW
Pressure: 30.04"   Gusts: NA
Location:  41.98°N, 87.9°W
Report Text: KORD 240651Z 21004KT 10SM SCT026 OVC032 12/07 A3004 RMK AO2 SLP171 T01170067 $
Loading
Personal Weather Stations






























Interactive Weather Map
Tropical Storm Tracking
New forecast layout! Learn more

10-Day Weather Forecast

Advertisements
Track Severe Weather on mobile